Time;durP1;ratioP1;P1;durP2;ratioP2;P2;SDS_P1;SDS_P2;PMS_P1;PMS_P2;Temp;Humidity;BMP_temperature;BMP_pressure;BME280_temperature;BME280_humidity;BME280_pressure;Samples;Min_cycle;Max_cycle;Signal;HPM_P1;HPM_P2
2022/02/10 00:20:16;;;;;;;32.38;21.40;;;9.10;99.90;;;;;;5010795;28;25068;-68
2022/02/10 00:36:41;;;;;;;30.00;19.20;;;8.90;99.90;;;;;;5021543;28;25080;-68
2022/02/10 00:41:38;;;;;;;31.65;19.42;;;8.90;99.90;;;;;;5019334;28;24982;-67
2022/02/10 00:44:04;;;;;;;25.85;17.40;;;8.90;99.90;;;;;;5011773;28;25080;-68
2022/02/10 00:46:29;;;;;;;32.33;17.95;;;8.80;99.90;;;;;;5025274;28;25079;-66
2022/02/10 00:48:55;;;;;;;31.92;19.05;;;8.90;99.90;;;;;;5016165;28;25139;-67
2022/02/10 00:51:21;;;;;;;28.33;17.83;;;8.90;99.90;;;;;;4991681;28;25048;-66
2022/02/10 00:53:47;;;;;;;26.65;18.48;;;8.80;99.90;;;;;;5024596;28;25065;-67
2022/02/10 00:56:14;;;;;;;25.55;17.27;;;8.90;99.90;;;;;;5029242;28;25067;-67
2022/02/10 00:58:43;;;;;;;29.13;18.40;;;8.90;99.90;;;;;;5030881;28;25156;-67
2022/02/10 01:12:51;;;;;;;29.58;18.42;;;8.80;99.90;;;;;;5040904;28;25070;-68
2022/02/10 01:31:47;;;;;;;30.38;20.35;;;8.70;99.90;;;;;;5031160;28;25066;-70
2022/02/10 01:34:12;;;;;;;30.98;19.88;;;8.70;99.90;;;;;;5017281;28;25131;-69
2022/02/10 01:36:38;;;;;;;33.15;20.98;;;8.70;99.90;;;;;;5019385;28;25126;-69
2022/02/10 01:39:05;;;;;;;30.90;20.42;;;8.60;99.90;;;;;;5026718;28;25092;-68
2022/02/10 01:58:13;;;;;;;28.77;18.88;;;8.50;99.90;;;;;;5029784;28;25153;-69
2022/02/10 02:03:26;;;;;;;30.67;20.75;;;8.60;99.90;;;;;;5030287;28;25089;-73
2022/02/10 02:06:03;;;;;;;32.75;20.10;;;8.70;99.90;;;;;;5006925;28;25074;-70
2022/02/10 02:08:32;;;;;;;35.35;20.80;;;8.70;99.90;;;;;;5018348;28;25086;-69
2022/02/10 02:10:59;;;;;;;29.23;19.45;;;8.70;99.90;;;;;;5020349;28;25129;-69
2022/02/10 02:13:25;;;;;;;35.22;21.30;;;8.80;99.90;;;;;;5012511;28;25110;-68
2022/02/10 02:15:51;;;;;;;32.75;20.38;;;8.80;99.90;;;;;;5024258;28;25072;-68
2022/02/10 02:18:17;;;;;;;26.67;19.10;;;8.80;99.90;;;;;;5026524;28;25080;-67
2022/02/10 02:20:47;;;;;;;32.50;20.15;;;8.70;99.90;;;;;;5013809;28;25066;-68
2022/02/10 02:23:15;;;;;;;32.58;20.13;;;8.60;99.90;;;;;;5003513;28;25072;-68
2022/02/10 02:25:40;;;;;;;34.90;19.27;;;8.50;99.90;;;;;;5034265;28;25104;-68
2022/02/10 02:28:10;;;;;;;29.77;19.38;;;8.40;99.90;;;;;;5018305;28;25071;-68
2022/02/10 02:30:44;;;;;;;34.72;20.10;;;8.40;99.90;;;;;;5029596;28;25068;-69
2022/02/10 02:39:20;;;;;;;32.17;19.35;;;8.40;99.90;;;;;;5034174;28;25153;-69
2022/02/10 03:08:54;;;;;;;24.17;16.88;;;8.30;99.90;;;;;;5029136;28;25101;-69
2022/02/10 03:11:20;;;;;;;30.48;18.48;;;8.30;99.90;;;;;;5029323;28;25078;-69
2022/02/10 03:13:55;;;;;;;29.40;17.80;;;8.30;99.90;;;;;;5024558;28;25100;-68
2022/02/10 03:21:55;;;;;;;28.88;19.23;;;8.20;99.90;;;;;;5040922;28;25145;-68
2022/02/10 04:00:25;;;;;;;34.78;23.13;;;8.10;99.90;;;;;;5037997;28;25118;-68
2022/02/10 04:03:08;;;;;;;32.75;21.50;;;8.20;99.90;;;;;;5039940;28;25109;-68
2022/02/10 04:08:25;;;;;;;38.92;24.30;;;8.20;99.90;;;;;;5048521;28;25060;-69
2022/02/10 04:16:24;;;;;;;40.75;24.75;;;8.10;99.90;;;;;;5043723;28;25124;-69
2022/02/10 04:22:19;;;;;;;36.00;24.33;;;8.10;99.90;;;;;;5049881;28;25170;-69
2022/02/10 04:37:12;;;;;;;51.22;26.50;;;8.20;99.90;;;;;;5052035;28;25067;-69
2022/02/10 04:41:48;;;;;;;72.03;31.58;;;8.20;99.90;;;;;;4994821;28;25059;-68
2022/02/10 04:54:48;;;;;;;84.32;32.80;;;8.20;99.90;;;;;;5000898;28;25069;-66
2022/02/10 04:57:17;;;;;;;82.25;34.22;;;8.20;99.90;;;;;;5010972;28;25057;-65
2022/02/10 04:59:54;;;;;;;91.47;33.30;;;8.10;99.90;;;;;;5012766;28;25060;-67
2022/02/10 05:05:57;;;;;;;103.90;38.72;;;8.10;99.90;;;;;;4930069;29;25057;-68
2022/02/10 05:16:37;;;;;;;105.97;37.72;;;8.10;99.90;;;;;;5031820;28;25137;-68
2022/02/10 05:31:26;;;;;;;108.35;39.90;;;8.20;99.90;;;;;;4999427;28;25070;-67
2022/02/10 05:35:24;;;;;;;115.57;42.75;;;8.20;99.90;;;;;;5008016;28;25160;-67
2022/02/10 05:38:13;;;;;;;121.80;43.28;;;8.20;99.90;;;;;;5028509;28;25139;-68
2022/02/10 05:43:27;;;;;;;125.82;45.30;;;8.10;99.90;;;;;;5012535;28;25004;-68
2022/02/10 05:46:15;;;;;;;149.70;46.78;;;8.10;99.90;;;;;;5016777;28;25138;-69
2022/02/10 05:51:41;;;;;;;161.05;52.60;;;8.00;99.90;;;;;;5017000;28;25052;-69
2022/02/10 05:56:38;;;;;;;151.30;46.60;;;8.00;99.90;;;;;;5017021;28;25055;-69
2022/02/10 05:59:43;;;;;;;136.38;44.58;;;8.00;99.90;;;;;;5016185;28;25066;-69
2022/02/10 06:54:06;;;;;;;45.90;26.67;;;7.40;99.90;;;;;;5007067;28;25160;-70
2022/02/10 07:05:24;;;;;;;29.80;18.35;;;7.20;99.90;;;;;;5008800;28;25067;-68
2022/02/10 07:16:15;;;;;;;23.33;15.18;;;7.20;99.90;;;;;;5006368;28;25159;-70
2022/02/10 08:56:15;;;;;;;7.10;3.92;;;7.30;99.90;;;;;;4991063;28;25082;-65
2022/02/10 09:04:00;;;;;;;13.13;4.53;;;7.40;99.90;;;;;;4990579;28;25097;-67
2022/02/10 09:09:31;;;;;;;8.85;3.20;;;7.50;99.90;;;;;;4994796;28;25060;-67
2022/02/10 10:00:39;;;;;;;12.80;3.35;;;8.10;99.90;;;;;;5010979;28;25127;-71
2022/02/10 10:03:12;;;;;;;10.75;2.88;;;7.90;99.90;;;;;;5011577;28;25127;-69
2022/02/10 10:05:59;;;;;;;7.40;2.22;;;7.90;99.90;;;;;;5013536;28;25075;-68
2022/02/10 10:08:50;;;;;;;13.75;2.90;;;7.90;99.90;;;;;;4998340;28;25067;-67
2022/02/10 10:11:59;;;;;;;10.95;2.78;;;8.00;99.90;;;;;;5018601;28;25057;-67
2022/02/10 10:21:47;;;;;;;10.23;3.03;;;8.10;99.90;;;;;;5010131;28;25106;-69
2022/02/10 10:51:55;;;;;;;11.55;3.80;;;8.50;99.90;;;;;;5028681;28;25046;-69
2022/02/10 10:54:31;;;;;;;13.50;3.15;;;8.50;99.90;;;;;;5009498;28;25055;-73
2022/02/10 10:57:04;;;;;;;10.63;2.70;;;8.50;99.90;;;;;;5027320;28;25089;-71
2022/02/10 10:59:39;;;;;;;6.82;2.60;;;8.50;99.90;;;;;;5023735;28;25099;-69
2022/02/10 11:39:24;;;;;;;12.50;3.75;;;8.50;99.90;;;;;;5011063;28;25075;-69
2022/02/10 11:42:27;;;;;;;12.45;3.60;;;8.70;99.90;;;;;;5012012;28;25058;-67
2022/02/10 12:44:23;;;;;;;14.07;3.38;;;8.50;99.90;;;;;;5015255;28;25081;-69
2022/02/10 14:14:42;;;;;;;15.20;2.47;;;8.50;99.80;;;;;;5012405;28;25065;-66
2022/02/10 14:17:10;;;;;;;9.77;2.45;;;8.50;99.90;;;;;;5009468;28;25054;-69
2022/02/10 14:19:40;;;;;;;8.63;1.92;;;8.50;99.80;;;;;;5009108;28;25094;-70
2022/02/10 14:27:27;;;;;;;6.97;2.30;;;8.50;99.80;;;;;;5008907;28;25000;-69
2022/02/10 14:29:53;;;;;;;14.55;2.90;;;8.60;99.90;;;;;;5009400;28;25079;-69
2022/02/10 14:32:23;;;;;;;10.32;2.28;;;8.50;99.20;;;;;;5009020;28;25059;-73
2022/02/10 14:34:52;;;;;;;10.98;2.30;;;8.60;99.90;;;;;;5008858;28;25053;-71
2022/02/10 15:53:40;;;;;;;14.98;3.22;;;7.90;99.90;;;;;;4991068;28;25462;-67
2022/02/10 15:56:27;;;;;;;11.18;2.45;;;7.80;99.90;;;;;;4992052;28;25165;-69
2022/02/10 16:16:12;;;;;;;12.70;2.05;;;7.50;98.30;;;;;;4991786;28;25085;-69
2022/02/10 16:18:10;;;;;;;10.88;2.95;;;7.50;98.00;;;;;;4992521;28;25069;-69
2022/02/10 16:20:36;;;;;;;9.00;2.40;;;7.50;98.20;;;;;;5008284;28;25075;-66
2022/02/10 16:23:08;;;;;;;8.23;2.45;;;7.50;97.90;;;;;;5007100;28;25094;-68
2022/02/10 16:25:38;;;;;;;9.57;2.22;;;7.50;98.00;;;;;;5012017;28;25072;-66
2022/02/10 16:28:40;;;;;;;11.23;2.30;;;7.50;98.10;;;;;;5015640;28;25070;-69
2022/02/10 16:30:57;;;;;;;9.73;1.90;;;7.50;98.30;;;;;;5015572;28;25099;-68
2022/02/10 16:33:23;;;;;;;10.27;1.98;;;7.50;98.80;;;;;;5018402;28;25059;-70
2022/02/10 16:35:48;;;;;;;13.07;2.05;;;7.40;98.90;;;;;;4994083;28;25071;-70
2022/02/10 16:38:14;;;;;;;13.68;2.67;;;7.40;98.80;;;;;;5015463;28;25055;-69
2022/02/10 16:40:41;;;;;;;10.07;2.47;;;7.40;99.20;;;;;;5019532;28;25098;-69
2022/02/10 16:43:07;;;;;;;13.45;3.10;;;7.30;99.20;;;;;;5013749;28;25043;-71
2022/02/10 16:45:33;;;;;;;10.43;2.42;;;7.40;99.40;;;;;;5020139;28;25065;-70
2022/02/10 16:47:59;;;;;;;8.27;2.67;;;7.40;99.70;;;;;;4999681;28;25066;-71
2022/02/10 16:50:26;;;;;;;9.05;2.55;;;7.20;99.90;;;;;;5010979;28;25162;-69
2022/02/10 16:52:58;;;;;;;9.20;2.47;;;7.20;99.90;;;;;;4995765;28;25102;-70
2022/02/10 17:04:04;;;;;;;12.68;2.10;;;7.10;99.90;;;;;;5009594;28;25080;-65
2022/02/10 17:20:10;;;;;;;11.52;2.78;;;7.00;99.90;;;;;;5025519;28;25064;-65
2022/02/10 17:25:26;;;;;;;15.65;2.60;;;7.00;99.90;;;;;;5010523;28;25060;-68
2022/02/10 17:27:58;;;;;;;12.48;3.00;;;6.90;99.90;;;;;;5011355;28;25098;-68
2022/02/10 17:33:04;;;;;;;12.80;2.90;;;6.90;99.90;;;;;;5014948;28;25050;-68
2022/02/10 17:52:10;;;;;;;15.98;3.78;;;7.00;99.90;;;;;;5010418;28;25067;-65
2022/02/10 17:54:36;;;;;;;11.40;2.72;;;7.00;99.90;;;;;;5027158;28;25055;-66
2022/02/10 17:57:02;;;;;;;14.00;2.78;;;7.10;99.90;;;;;;5027453;28;25132;-67
2022/02/10 17:59:28;;;;;;;12.70;3.38;;;6.90;99.90;;;;;;5028047;28;25160;-67
2022/02/10 18:01:54;;;;;;;12.57;3.22;;;6.90;99.90;;;;;;5009401;28;25138;-67
2022/02/10 18:04:22;;;;;;;15.38;2.83;;;6.90;99.90;;;;;;5019214;28;25130;-66
2022/02/10 18:06:53;;;;;;;13.63;3.13;;;6.90;99.90;;;;;;5008235;28;25088;-67
2022/02/10 18:17:16;;;;;;;12.38;2.90;;;6.90;99.90;;;;;;5004767;28;25117;-66
2022/02/10 18:19:50;;;;;;;15.30;2.60;;;6.90;99.90;;;;;;5012629;28;25078;-66
2022/02/10 18:25:01;;;;;;;13.73;3.20;;;6.80;99.90;;;;;;5002015;28;25079;-66
2022/02/10 19:10:14;;;;;;;12.82;3.88;;;6.80;99.90;;;;;;4940432;29;25169;-67
2022/02/10 19:12:44;;;;;;;12.80;3.17;;;6.80;99.90;;;;;;4957590;28;25057;-67
2022/02/10 19:15:23;;;;;;;15.93;3.50;;;6.80;99.90;;;;;;4995200;28;25071;-66
2022/02/10 19:17:50;;;;;;;10.40;2.97;;;6.70;99.90;;;;;;5010149;28;25088;-68
2022/02/10 19:20:20;;;;;;;15.88;3.30;;;6.60;99.90;;;;;;5020158;28;25054;-69
2022/02/10 19:22:46;;;;;;;18.23;2.97;;;6.60;99.90;;;;;;5010125;28;25062;-69
2022/02/10 19:25:13;;;;;;;13.75;2.75;;;6.60;99.90;;;;;;4989113;28;25072;-67
2022/02/10 19:27:48;;;;;;;15.50;3.83;;;6.60;99.90;;;;;;5009417;28;25169;-67
2022/02/10 19:30:16;;;;;;;11.85;2.88;;;6.60;99.90;;;;;;5008476;28;25091;-67
2022/02/10 19:32:48;;;;;;;13.57;3.47;;;6.60;99.90;;;;;;4990001;28;25066;-68
2022/02/10 19:35:16;;;;;;;11.60;3.15;;;6.50;99.90;;;;;;5007332;28;25069;-70
2022/02/10 19:37:44;;;;;;;13.05;3.22;;;6.50;99.90;;;;;;5009932;28;25074;-67
2022/02/10 19:40:11;;;;;;;15.68;3.10;;;6.60;99.90;;;;;;4989140;28;25042;-66
2022/02/10 19:42:38;;;;;;;11.57;3.30;;;6.60;99.90;;;;;;5011379;28;25079;-68
2022/02/10 19:45:06;;;;;;;12.38;3.08;;;6.50;99.90;;;;;;5012277;28;25068;-66
2022/02/10 19:47:33;;;;;;;16.33;3.17;;;6.50;99.90;;;;;;5015014;28;25053;-66
2022/02/10 19:50:05;;;;;;;14.35;3.60;;;6.50;99.90;;;;;;5011721;28;25150;-67
2022/02/10 19:52:32;;;;;;;20.10;3.70;;;6.50;99.90;;;;;;4979341;28;25048;-69
2022/02/10 19:55:00;;;;;;;16.85;3.20;;;6.40;99.90;;;;;;4991903;28;25076;-68
2022/02/10 19:57:26;;;;;;;11.65;3.15;;;6.50;99.90;;;;;;4989588;28;25093;-67
2022/02/10 19:59:53;;;;;;;13.88;3.75;;;6.50;99.90;;;;;;4992529;28;25100;-66
2022/02/10 20:02:21;;;;;;;17.40;3.40;;;6.40;99.90;;;;;;5006512;28;25053;-63
2022/02/10 20:04:47;;;;;;;14.10;5.25;;;6.40;99.90;;;;;;5006168;28;25037;-65
2022/02/10 20:07:13;;;;;;;12.55;3.55;;;6.40;99.90;;;;;;4988876;28;25054;-68
2022/02/10 20:09:38;;;;;;;14.52;3.50;;;6.30;99.90;;;;;;5029354;28;25070;-68
2022/02/10 20:12:05;;;;;;;13.27;3.30;;;6.40;99.90;;;;;;5006063;28;25135;-69
2022/02/10 20:14:30;;;;;;;10.18;3.08;;;6.30;99.90;;;;;;5014128;28;25063;-68
2022/02/10 20:17:01;;;;;;;13.23;3.00;;;6.40;99.90;;;;;;5006252;28;25065;-69
2022/02/10 20:19:27;;;;;;;13.93;3.47;;;6.40;99.90;;;;;;5006707;28;25185;-68
2022/02/10 20:21:54;;;;;;;12.93;3.30;;;6.40;99.90;;;;;;5005809;28;25065;-68
2022/02/10 20:24:20;;;;;;;13.23;3.38;;;6.40;99.90;;;;;;5004047;28;25054;-69
2022/02/10 20:26:45;;;;;;;15.43;3.65;;;6.40;99.90;;;;;;5025950;28;25060;-68
2022/02/10 20:29:11;;;;;;;15.57;3.60;;;6.30;99.90;;;;;;5011826;28;25062;-68
2022/02/10 20:31:41;;;;;;;10.50;3.50;;;6.30;99.90;;;;;;5006795;28;25068;-68
2022/02/10 20:34:12;;;;;;;10.02;2.85;;;6.30;99.90;;;;;;5010116;28;25131;-68
2022/02/10 20:36:38;;;;;;;13.35;3.17;;;6.20;99.90;;;;;;5009765;28;25152;-68
2022/02/10 20:39:07;;;;;;;12.88;3.05;;;6.20;99.90;;;;;;5010621;28;25084;-68
2022/02/10 20:41:36;;;;;;;13.13;4.25;;;6.10;99.90;;;;;;5002842;28;25131;-68
2022/02/10 20:44:04;;;;;;;17.33;5.40;;;6.10;99.90;;;;;;5030579;28;25107;-64
2022/02/10 20:46:31;;;;;;;12.48;3.50;;;6.10;99.90;;;;;;5022533;28;25131;-68
2022/02/10 20:48:57;;;;;;;14.95;2.88;;;6.10;99.90;;;;;;5012367;28;25064;-70
2022/02/10 20:51:23;;;;;;;14.20;3.13;;;6.20;99.90;;;;;;5009560;28;25079;-69
2022/02/10 20:53:50;;;;;;;15.75;3.03;;;6.20;99.90;;;;;;5006495;28;25072;-67
2022/02/10 20:56:23;;;;;;;13.65;3.13;;;6.20;99.90;;;;;;5006984;28;25072;-67
2022/02/10 20:58:56;;;;;;;8.90;2.90;;;6.20;99.90;;;;;;5011820;28;25081;-68
2022/02/10 21:01:23;;;;;;;9.45;2.67;;;6.20;99.90;;;;;;4995205;28;25068;-68
2022/02/10 21:03:49;;;;;;;17.65;3.42;;;6.20;99.90;;;;;;5010287;28;25117;-70
2022/02/10 21:09:06;;;;;;;14.75;2.80;;;6.20;99.90;;;;;;5010286;28;25075;-69
2022/02/10 21:11:31;;;;;;;;;;;6.20;99.90;;;;;;5010122;28;25085;-68
2022/02/10 21:13:58;;;;;;;13.70;3.35;;;6.10;99.90;;;;;;5008789;28;24121;-65
2022/02/10 21:16:25;;;;;;;15.75;3.30;;;6.10;99.90;;;;;;5009142;28;25095;-67
2022/02/10 21:18:51;;;;;;;18.80;3.08;;;6.00;99.90;;;;;;5009153;28;25059;-69
2022/02/10 21:21:18;;;;;;;10.68;2.55;;;6.00;99.90;;;;;;5009647;28;25061;-68
2022/02/10 21:23:52;;;;;;;17.50;2.80;;;6.00;99.90;;;;;;5021485;28;25056;-68
2022/02/10 21:26:20;;;;;;;14.13;2.70;;;5.90;99.90;;;;;;5026550;28;25062;-69
2022/02/10 21:28:48;;;;;;;16.55;2.70;;;5.90;99.90;;;;;;5030304;28;25047;-71
2022/02/10 21:31:13;;;;;;;9.05;2.70;;;6.00;99.90;;;;;;5030129;28;25046;-68
2022/02/10 21:38:44;;;;;;;15.45;3.10;;;5.80;99.90;;;;;;5019750;28;25048;-70
2022/02/10 22:18:18;;;;;;;17.00;3.85;;;5.40;99.90;;;;;;5012186;28;25086;-69
2022/02/10 22:20:41;;;;;;;16.15;2.65;;;5.40;99.90;;;;;;5012400;28;25127;-71
2022/02/10 22:23:15;;;;;;;14.75;3.13;;;5.40;99.90;;;;;;4994835;28;25117;-70
2022/02/10 22:25:41;;;;;;;12.23;2.70;;;5.40;99.90;;;;;;5012252;28;25066;-68
2022/02/10 22:28:22;;;;;;;15.35;2.90;;;5.40;99.90;;;;;;4996771;28;25057;-69
2022/02/10 22:30:55;;;;;;;12.35;2.83;;;5.30;99.90;;;;;;5012007;28;25087;-71
2022/02/10 22:33:42;;;;;;;11.20;2.80;;;5.30;99.90;;;;;;5015860;28;25150;-70
2022/02/10 22:36:11;;;;;;;19.23;2.83;;;5.30;99.90;;;;;;5013859;28;25060;-73
2022/02/10 22:38:37;;;;;;;17.92;3.38;;;5.30;99.90;;;;;;4990958;28;25061;-70
2022/02/10 22:41:09;;;;;;;16.25;3.22;;;5.20;99.90;;;;;;5008528;28;25086;-70
2022/02/10 22:43:40;;;;;;;14.80;2.78;;;5.20;99.90;;;;;;5020101;28;25076;-72
2022/02/10 22:46:07;;;;;;;12.15;2.80;;;5.20;99.90;;;;;;5021280;28;25055;-70
2022/02/10 22:48:35;;;;;;;12.27;2.22;;;5.20;99.90;;;;;;5015144;28;25064;-69
2022/02/10 22:51:02;;;;;;;22.65;4.88;;;5.10;99.90;;;;;;4993725;28;25103;-70
2022/02/10 22:53:28;;;;;;;13.38;2.80;;;5.10;99.90;;;;;;5016081;28;25112;-70
2022/02/10 22:55:54;;;;;;;15.88;3.10;;;5.10;99.90;;;;;;5006852;28;25087;-70
2022/02/10 22:58:19;;;;;;;13.88;2.55;;;5.10;99.90;;;;;;5013789;28;25060;-70
2022/02/10 23:00:47;;;;;;;14.27;2.78;;;5.10;99.90;;;;;;5029510;28;25069;-70
2022/02/10 23:03:20;;;;;;;20.13;2.80;;;5.10;99.90;;;;;;5010890;28;25053;-70
2022/02/10 23:05:47;;;;;;;14.07;3.00;;;5.10;99.90;;;;;;5019396;28;25062;-69
2022/02/10 23:08:14;;;;;;;12.82;2.63;;;5.10;99.90;;;;;;5022149;28;25106;-71
2022/02/10 23:10:50;;;;;;;11.43;2.55;;;5.20;99.90;;;;;;5014454;28;25060;-70
2022/02/10 23:13:27;;;;;;;16.88;3.10;;;5.10;99.90;;;;;;5023147;28;25096;-68
2022/02/10 23:15:54;;;;;;;17.70;3.30;;;5.10;99.90;;;;;;5003612;28;25158;-69
2022/02/10 23:18:26;;;;;;;16.38;3.70;;;5.00;99.90;;;;;;5018364;28;25076;-69
2022/02/10 23:20:53;;;;;;;;;;;5.10;99.90;;;;;;5039497;28;25093;-68
2022/02/10 23:23:21;;;;;;;14.23;2.78;;;5.10;99.90;;;;;;5031038;28;25056;-69
2022/02/10 23:25:48;;;;;;;14.80;3.22;;;5.10;99.90;;;;;;5014878;28;25065;-68
2022/02/10 23:28:18;;;;;;;16.77;2.58;;;5.00;99.90;;;;;;5017439;28;25056;-70
2022/02/10 23:30:47;;;;;;;14.20;2.72;;;5.00;99.90;;;;;;4988431;28;25075;-67
2022/02/10 23:33:25;;;;;;;16.38;3.28;;;5.10;99.90;;;;;;4989213;28;25169;-67
2022/02/10 23:44:26;;;;;;;17.90;3.55;;;5.00;99.90;;;;;;4952070;28;25087;-69
2022/02/10 23:46:53;;;;;;;13.07;3.05;;;5.00;99.90;;;;;;4986658;28;25075;-66
2022/02/10 23:49:20;;;;;;;17.45;2.88;;;5.00;99.90;;;;;;5020966;28;25071;-67
2022/02/10 23:51:56;;;;;;;22.98;3.20;;;5.00;99.90;;;;;;5020082;28;25067;-68
2022/02/10 23:54:23;;;;;;;18.00;3.40;;;5.00;99.90;;;;;;4993710;28;25074;-70
2022/02/10 23:56:56;;;;;;;20.70;3.03;;;5.00;99.90;;;;;;5007260;28;25091;-69
